Time;durP1;ratioP1;P1;durP2;ratioP2;P2;SDS_P1;SDS_P2;PMS_P1;PMS_P2;Temp;Humidity;BMP_temperature;BMP_pressure;BME280_temperature;BME280_humidity;BME280_pressure;Samples;Min_cycle;Max_cycle;Signal;HPM_P1;HPM_P2
2023/01/05 00:01:25;;;;;;;0.00;0.00;;;10.90;99.90;;;;;;5019520;28;20021;-72
2023/01/05 00:03:52;;;;;;;0.00;0.00;;;11.00;99.90;;;;;;5023671;28;20021;-72
2023/01/05 00:06:19;;;;;;;;;;;11.00;99.90;;;;;;5017159;28;20184;-72
2023/01/05 00:08:46;;;;;;;0.00;0.00;;;10.90;99.90;;;;;;5036305;28;20003;-72
2023/01/05 00:22:30;;;;;;;0.00;0.00;;;10.90;99.90;;;;;;5020475;28;20051;-72
2023/01/05 00:24:59;;;;;;;0.00;0.00;;;10.90;99.90;;;;;;5021751;28;20029;-72
2023/01/05 00:27:26;;;;;;;0.00;0.00;;;10.90;99.90;;;;;;5031459;28;20113;-72
2023/01/05 00:29:53;;;;;;;0.00;0.00;;;10.90;99.90;;;;;;5017874;28;20079;-72
2023/01/05 00:32:18;;;;;;;;;;;10.90;99.90;;;;;;5019422;28;20032;-72
2023/01/05 00:34:45;;;;;;;0.00;0.00;;;10.90;99.90;;;;;;5025049;28;19909;-72
2023/01/05 00:37:11;;;;;;;0.00;0.00;;;10.90;99.90;;;;;;5020628;28;20100;-72
2023/01/05 00:39:39;;;;;;;0.00;0.00;;;10.90;99.90;;;;;;5025463;28;20029;-72
2023/01/05 00:42:05;;;;;;;0.00;0.00;;;10.90;99.90;;;;;;5018358;28;20075;-72
2023/01/05 00:44:31;;;;;;;0.00;0.00;;;11.00;99.90;;;;;;5018371;28;20025;-72
2023/01/05 00:46:59;;;;;;;;;;;11.00;99.90;;;;;;5021695;28;20026;-72
2023/01/05 00:49:25;;;;;;;0.00;0.00;;;11.00;99.90;;;;;;5023649;28;19905;-72
2023/01/05 00:51:52;;;;;;;;;;;11.00;99.90;;;;;;5022422;28;20079;-72
2023/01/05 00:54:18;;;;;;;0.00;0.00;;;11.00;99.90;;;;;;5032812;28;19915;-72
2023/01/05 00:56:48;;;;;;;0.00;0.00;;;11.00;99.90;;;;;;5021903;28;20014;-72
2023/01/05 00:59:15;;;;;;;0.00;0.00;;;11.10;99.90;;;;;;5022460;28;20018;-71
2023/01/05 01:01:41;;;;;;;0.10;0.10;;;11.10;99.90;;;;;;5021135;28;20043;-72
2023/01/05 01:04:06;;;;;;;0.00;0.00;;;11.10;99.90;;;;;;5024460;28;20140;-72
2023/01/05 01:06:34;;;;;;;0.00;0.00;;;11.20;99.90;;;;;;5023689;28;20105;-72
2023/01/05 01:09:00;;;;;;;0.00;0.00;;;11.10;99.90;;;;;;5027043;28;20500;-72
2023/01/05 01:11:26;;;;;;;0.00;0.00;;;11.20;99.90;;;;;;5027158;28;20022;-72
2023/01/05 01:13:55;;;;;;;;;;;11.20;99.90;;;;;;5027263;28;20049;-73
2023/01/05 01:16:22;;;;;;;0.00;0.00;;;11.20;99.90;;;;;;5018969;28;19909;-73
2023/01/05 01:18:49;;;;;;;0.00;0.00;;;11.20;99.90;;;;;;5024971;28;20025;-72
2023/01/05 01:21:15;;;;;;;;;;;11.20;99.90;;;;;;5020985;28;20031;-72
2023/01/05 01:23:42;;;;;;;0.00;0.00;;;11.30;99.90;;;;;;5035213;28;19917;-72
2023/01/05 01:26:11;;;;;;;0.00;0.00;;;11.30;99.90;;;;;;5021146;28;20056;-72
2023/01/05 01:28:38;;;;;;;0.00;0.00;;;11.30;99.90;;;;;;5021475;28;20033;-72
2023/01/05 01:31:07;;;;;;;0.00;0.00;;;11.30;99.90;;;;;;5017390;28;20630;-72
2023/01/05 01:33:37;;;;;;;0.00;0.00;;;11.20;99.90;;;;;;5021942;28;20030;-72
2023/01/05 01:36:04;;;;;;;0.00;0.00;;;11.20;99.90;;;;;;5023355;28;20022;-72
2023/01/05 01:38:32;;;;;;;0.00;0.00;;;11.20;99.90;;;;;;5024510;28;20156;-72
2023/01/05 01:40:59;;;;;;;0.00;0.00;;;11.20;99.90;;;;;;5025330;28;20022;-72
2023/01/05 01:43:49;;;;;;;0.00;0.00;;;11.20;99.90;;;;;;5024100;28;20576;-72
2023/01/05 01:46:17;;;;;;;0.00;0.00;;;11.20;99.90;;;;;;5024478;28;20022;-73
2023/01/05 01:48:50;;;;;;;0.00;0.00;;;11.10;99.90;;;;;;5021668;28;20041;-72
2023/01/05 01:51:40;;;;;;;0.00;0.00;;;11.20;99.90;;;;;;5024026;28;20033;-73
2023/01/05 01:54:08;;;;;;;0.00;0.00;;;11.10;99.90;;;;;;5028877;28;20033;-72
2023/01/05 01:56:48;;;;;;;0.00;0.00;;;11.10;99.90;;;;;;5018240;28;20075;-72
2023/01/05 01:59:16;;;;;;;0.00;0.00;;;11.10;99.90;;;;;;5014640;28;20036;-72
2023/01/05 02:01:42;;;;;;;0.00;0.00;;;11.10;99.90;;;;;;5030663;28;20071;-72
2023/01/05 02:04:09;;;;;;;0.00;0.00;;;11.20;99.90;;;;;;5023957;28;20651;-72
2023/01/05 02:06:36;;;;;;;0.00;0.00;;;11.10;99.90;;;;;;5018510;28;20041;-72
2023/01/05 02:09:03;;;;;;;0.00;0.00;;;11.10;99.90;;;;;;5015231;28;20021;-72
2023/01/05 02:11:58;;;;;;;0.00;0.00;;;11.20;99.90;;;;;;5022012;28;20104;-72
2023/01/05 02:15:09;;;;;;;0.00;0.00;;;11.20;99.90;;;;;;5020299;28;20025;-72
2023/01/05 02:18:04;;;;;;;0.00;0.00;;;11.20;99.90;;;;;;5011589;28;20044;-72
2023/01/05 02:21:09;;;;;;;0.00;0.00;;;11.20;99.90;;;;;;5021042;28;20098;-72
2023/01/05 02:24:06;;;;;;;0.00;0.00;;;11.20;99.90;;;;;;5025673;28;20860;-72
2023/01/05 02:27:10;;;;;;;0.00;0.00;;;11.20;99.90;;;;;;5021250;28;20026;-72
2023/01/05 02:29:39;;;;;;;0.00;0.00;;;11.20;99.90;;;;;;5020364;28;20038;-72
2023/01/05 02:32:14;;;;;;;0.00;0.00;;;11.20;99.90;;;;;;5017921;28;20167;-72
2023/01/05 02:34:59;;;;;;;0.00;0.00;;;11.20;99.90;;;;;;5023660;28;20124;-72
2023/01/05 02:38:00;;;;;;;0.00;0.00;;;11.20;99.90;;;;;;5043512;28;20045;-72
2023/01/05 02:40:32;;;;;;;0.00;0.00;;;11.30;99.90;;;;;;5020606;28;20027;-72
2023/01/05 02:42:59;;;;;;;0.00;0.00;;;11.40;99.90;;;;;;5025191;28;20028;-73
2023/01/05 02:45:25;;;;;;;0.00;0.00;;;11.50;99.90;;;;;;5020779;28;20021;-72
2023/01/05 02:47:51;;;;;;;0.00;0.00;;;11.60;99.90;;;;;;5026307;28;20051;-72
2023/01/05 02:50:35;;;;;;;0.00;0.00;;;11.60;99.90;;;;;;5024905;28;20029;-73
2023/01/05 02:53:18;;;;;;;0.00;0.00;;;11.60;99.90;;;;;;5022705;28;20470;-72
2023/01/05 02:55:54;;;;;;;0.00;0.00;;;11.60;99.90;;;;;;5023942;28;20646;-72
2023/01/05 02:58:30;;;;;;;0.00;0.00;;;11.60;99.90;;;;;;5020143;28;20154;-72
2023/01/05 03:01:04;;;;;;;0.00;0.00;;;11.60;99.90;;;;;;5019232;28;20017;-72
2023/01/05 03:03:36;;;;;;;0.00;0.00;;;11.60;99.90;;;;;;5018392;28;20580;-72
2023/01/05 03:06:13;;;;;;;0.00;0.00;;;11.60;99.90;;;;;;5032382;28;20022;-72
2023/01/05 03:08:58;;;;;;;0.00;0.00;;;11.60;99.90;;;;;;5024610;28;20040;-72
2023/01/05 03:14:34;;;;;;;0.00;0.00;;;11.70;99.90;;;;;;5019189;28;20156;-72
2023/01/05 03:17:02;;;;;;;0.00;0.00;;;11.70;99.90;;;;;;5021515;28;20040;-72
2023/01/05 03:19:38;;;;;;;0.38;0.22;;;11.70;99.90;;;;;;5033876;28;20022;-71
2023/01/05 03:37:08;;;;;;;0.00;0.00;;;11.30;99.90;;;;;;5015952;28;20045;-72
2023/01/05 03:39:39;;;;;;;0.00;0.00;;;11.10;99.90;;;;;;5021436;28;20056;-72
2023/01/05 03:42:07;;;;;;;0.00;0.00;;;11.10;99.90;;;;;;5034985;28;20028;-72
2023/01/05 03:44:45;;;;;;;0.00;0.00;;;11.20;99.90;;;;;;5020983;28;20022;-72
2023/01/05 03:47:14;;;;;;;0.00;0.00;;;11.20;99.90;;;;;;5021605;28;20525;-72
2023/01/05 03:49:41;;;;;;;0.00;0.00;;;11.20;99.90;;;;;;5016195;28;20022;-72
2023/01/05 03:52:06;;;;;;;0.00;0.00;;;11.10;99.90;;;;;;5019274;28;20033;-72
2023/01/05 03:54:32;;;;;;;0.00;0.00;;;11.10;99.90;;;;;;5025898;28;20028;-73
2023/01/05 03:56:59;;;;;;;0.00;0.00;;;11.20;99.90;;;;;;5021745;28;20075;-72
2023/01/05 03:59:24;;;;;;;;;;;11.30;99.90;;;;;;5017684;28;20101;-72
2023/01/05 04:01:50;;;;;;;0.00;0.00;;;11.30;99.90;;;;;;5023085;28;20318;-72
2023/01/05 04:04:16;;;;;;;0.00;0.00;;;11.30;99.90;;;;;;5026945;28;20021;-72
2023/01/05 04:06:42;;;;;;;0.00;0.00;;;11.30;99.90;;;;;;5017731;28;20056;-72
2023/01/05 04:09:08;;;;;;;;;;;11.40;99.90;;;;;;5017376;28;20422;-72
2023/01/05 04:11:34;;;;;;;0.00;0.00;;;11.30;99.90;;;;;;5020933;28;19909;-72
2023/01/05 04:13:59;;;;;;;0.00;0.00;;;11.30;99.90;;;;;;5020445;28;20150;-73
2023/01/05 04:16:27;;;;;;;0.00;0.00;;;11.30;99.90;;;;;;5021227;28;20463;-72
2023/01/05 04:18:53;;;;;;;0.00;0.00;;;11.40;99.90;;;;;;5020767;28;20736;-72
2023/01/05 04:21:21;;;;;;;0.00;0.00;;;11.30;99.90;;;;;;5021070;28;20014;-72
2023/01/05 04:23:47;;;;;;;0.00;0.00;;;11.30;99.90;;;;;;5022332;28;20080;-72
2023/01/05 04:26:14;;;;;;;0.00;0.00;;;11.30;99.90;;;;;;5013875;28;20060;-72
2023/01/05 04:28:40;;;;;;;0.00;0.00;;;11.40;99.90;;;;;;5018208;28;20093;-72
2023/01/05 04:31:06;;;;;;;0.00;0.00;;;11.40;99.90;;;;;;5024306;28;20151;-72
2023/01/05 04:33:38;;;;;;;0.00;0.00;;;11.40;99.90;;;;;;5017792;28;20104;-72
2023/01/05 04:36:04;;;;;;;0.00;0.00;;;11.40;99.90;;;;;;5017335;28;20017;-72
2023/01/05 04:38:29;;;;;;;0.00;0.00;;;11.30;99.90;;;;;;5021079;28;20128;-72
2023/01/05 04:40:59;;;;;;;0.00;0.00;;;11.30;99.90;;;;;;5015680;28;20680;-72
2023/01/05 04:43:28;;;;;;;0.00;0.00;;;11.40;99.90;;;;;;5019942;28;20053;-72
2023/01/05 04:45:54;;;;;;;0.00;0.00;;;11.40;99.90;;;;;;5027121;28;20404;-72
2023/01/05 04:48:21;;;;;;;0.00;0.00;;;11.40;99.90;;;;;;5017526;28;20053;-72
2023/01/05 04:50:55;;;;;;;0.00;0.00;;;11.30;99.90;;;;;;5017595;28;20471;-72
2023/01/05 04:53:22;;;;;;;0.00;0.00;;;11.50;99.90;;;;;;5025647;28;20352;-73
2023/01/05 04:55:51;;;;;;;0.00;0.00;;;11.40;99.90;;;;;;5020777;28;20025;-72
2023/01/05 04:58:17;;;;;;;0.00;0.00;;;11.40;99.90;;;;;;5023173;28;20564;-72
2023/01/05 05:00:42;;;;;;;0.00;0.00;;;11.40;99.90;;;;;;5014578;28;20112;-72
2023/01/05 05:03:08;;;;;;;0.00;0.00;;;11.40;99.90;;;;;;5021909;28;20109;-72
2023/01/05 05:05:34;;;;;;;0.00;0.00;;;11.40;99.90;;;;;;5019794;28;20107;-72
2023/01/05 05:08:00;;;;;;;0.00;0.00;;;11.50;99.90;;;;;;5021084;28;20036;-72
2023/01/05 05:10:26;;;;;;;0.00;0.00;;;11.50;99.90;;;;;;5015508;28;20500;-72
2023/01/05 05:12:52;;;;;;;0.00;0.00;;;11.50;99.90;;;;;;5008273;28;20268;-72
2023/01/05 05:15:18;;;;;;;0.00;0.00;;;11.50;99.90;;;;;;5019184;28;20779;-72
2023/01/05 05:17:43;;;;;;;0.00;0.00;;;11.50;99.90;;;;;;5012156;28;20018;-72
2023/01/05 05:20:09;;;;;;;0.00;0.00;;;11.50;99.90;;;;;;5017760;28;20041;-72
2023/01/05 05:22:35;;;;;;;0.00;0.00;;;11.50;99.90;;;;;;5022669;28;20112;-72
2023/01/05 05:25:01;;;;;;;0.00;0.00;;;11.50;99.90;;;;;;5019824;28;20403;-72
2023/01/05 05:27:26;;;;;;;0.00;0.00;;;11.50;99.90;;;;;;5012238;28;20297;-72
2023/01/05 05:29:52;;;;;;;0.00;0.00;;;11.50;99.90;;;;;;5010957;28;20060;-72
2023/01/05 05:32:17;;;;;;;0.00;0.00;;;11.60;99.90;;;;;;5031434;28;20094;-72
2023/01/05 05:34:47;;;;;;;0.00;0.00;;;11.50;99.90;;;;;;5025732;28;20025;-72
2023/01/05 05:37:14;;;;;;;0.00;0.00;;;11.50;99.90;;;;;;5038365;28;20687;-72
2023/01/05 05:39:43;;;;;;;;;;;11.60;99.90;;;;;;5023910;28;20033;-72
2023/01/05 05:42:08;;;;;;;0.00;0.00;;;11.50;99.90;;;;;;5018467;28;20644;-72
2023/01/05 05:44:34;;;;;;;0.00;0.00;;;11.60;99.90;;;;;;5038346;28;20090;-72
2023/01/05 05:47:01;;;;;;;0.00;0.00;;;11.50;99.90;;;;;;5026302;28;20029;-72
2023/01/05 05:49:27;;;;;;;;;;;11.50;99.90;;;;;;5023391;28;20013;-72
2023/01/05 05:51:54;;;;;;;0.00;0.00;;;11.50;99.90;;;;;;5035889;28;19905;-72
2023/01/05 05:54:19;;;;;;;;;;;11.50;99.90;;;;;;5029544;28;20052;-72
2023/01/05 05:56:45;;;;;;;0.00;0.00;;;11.60;99.90;;;;;;5019461;28;20351;-72
2023/01/05 05:59:11;;;;;;;0.00;0.00;;;11.60;99.90;;;;;;5017797;28;20108;-72
2023/01/05 06:01:36;;;;;;;0.00;0.00;;;11.60;99.90;;;;;;5032864;28;20379;-72
2023/01/05 06:04:02;;;;;;;0.00;0.00;;;11.60;99.90;;;;;;5022294;28;20356;-72
2023/01/05 06:06:28;;;;;;;0.00;0.00;;;11.70;99.90;;;;;;5018242;28;20021;-72
2023/01/05 06:08:54;;;;;;;0.00;0.00;;;11.80;99.90;;;;;;5021914;28;20021;-72
2023/01/05 06:11:22;;;;;;;0.00;0.00;;;11.80;99.90;;;;;;5020492;28;20052;-72
2023/01/05 06:13:55;;;;;;;0.00;0.00;;;11.80;99.90;;;;;;5022375;28;20562;-72
2023/01/05 06:16:20;;;;;;;0.00;0.00;;;11.80;99.90;;;;;;5032537;28;20033;-72
2023/01/05 06:18:47;;;;;;;0.00;0.00;;;11.80;99.90;;;;;;5019143;28;20024;-73
2023/01/05 06:21:12;;;;;;;;;;;11.80;99.90;;;;;;5021078;28;20117;-72
2023/01/05 06:23:39;;;;;;;0.00;0.00;;;11.80;99.90;;;;;;5029338;28;20445;-72
2023/01/05 06:26:06;;;;;;;0.00;0.00;;;11.80;99.90;;;;;;5021781;28;20039;-73
2023/01/05 06:28:36;;;;;;;0.00;0.00;;;11.70;99.90;;;;;;5019668;28;20029;-72
2023/01/05 06:31:03;;;;;;;0.00;0.00;;;11.70;99.90;;;;;;5021996;28;20275;-72
2023/01/05 06:33:31;;;;;;;0.00;0.00;;;11.80;99.90;;;;;;5020820;28;20056;-72
2023/01/05 06:36:03;;;;;;;0.00;0.00;;;11.80;99.90;;;;;;5017776;28;20044;-72
2023/01/05 06:38:29;;;;;;;0.00;0.00;;;11.90;99.90;;;;;;5026240;28;20036;-72
2023/01/05 06:40:56;;;;;;;0.00;0.00;;;11.90;99.90;;;;;;5022067;28;20021;-72
2023/01/05 06:43:23;;;;;;;0.00;0.00;;;11.90;99.90;;;;;;5019391;28;20045;-72
2023/01/05 06:45:51;;;;;;;0.00;0.00;;;11.90;99.90;;;;;;5021281;28;20379;-72
2023/01/05 06:48:17;;;;;;;0.00;0.00;;;11.90;99.90;;;;;;5015506;28;20037;-72
2023/01/05 06:50:46;;;;;;;0.00;0.00;;;11.90;99.90;;;;;;5022716;28;20021;-72
2023/01/05 06:53:13;;;;;;;0.00;0.00;;;12.00;99.90;;;;;;5026310;28;20034;-72
2023/01/05 06:55:40;;;;;;;0.00;0.00;;;12.00;99.90;;;;;;5018032;28;20744;-73
2023/01/05 06:58:06;;;;;;;;;;;12.00;99.90;;;;;;5030597;28;20021;-72
2023/01/05 07:00:35;;;;;;;0.00;0.00;;;12.10;99.90;;;;;;5024361;28;20421;-72
2023/01/05 07:03:05;;;;;;;0.00;0.00;;;12.20;99.90;;;;;;5021992;28;20048;-72
2023/01/05 07:05:30;;;;;;;0.00;0.00;;;12.30;99.90;;;;;;5019957;28;20017;-72
2023/01/05 07:07:57;;;;;;;0.00;0.00;;;12.30;99.90;;;;;;5033293;28;20028;-72
2023/01/05 07:10:23;;;;;;;0.00;0.00;;;12.40;99.90;;;;;;5020219;28;20052;-72
2023/01/05 07:12:48;;;;;;;0.00;0.00;;;12.40;99.90;;;;;;5017200;28;20122;-71
2023/01/05 07:15:14;;;;;;;0.00;0.00;;;12.40;99.90;;;;;;5020360;28;20490;-71
2023/01/05 07:17:40;;;;;;;0.00;0.00;;;12.60;99.90;;;;;;5024205;28;20375;-73
2023/01/05 07:20:07;;;;;;;0.00;0.00;;;12.70;99.90;;;;;;5020859;28;20260;-73
2023/01/05 07:22:41;;;;;;;0.00;0.00;;;12.70;99.90;;;;;;5012939;28;20578;-75
2023/01/05 07:25:08;;;;;;;0.00;0.00;;;12.70;99.90;;;;;;5022149;28;20106;-74
2023/01/05 07:27:37;;;;;;;0.00;0.00;;;12.60;99.90;;;;;;5025871;28;20029;-73
2023/01/05 07:30:07;;;;;;;0.00;0.00;;;12.70;99.90;;;;;;5021133;28;20029;-75
2023/01/05 07:32:32;;;;;;;0.00;0.00;;;12.70;99.90;;;;;;5019210;28;20056;-75
2023/01/05 07:34:58;;;;;;;0.00;0.00;;;12.70;99.90;;;;;;5020150;28;20029;-73
2023/01/05 07:37:25;;;;;;;0.00;0.00;;;12.80;99.90;;;;;;5032876;28;20639;-73
2023/01/05 07:39:52;;;;;;;0.00;0.00;;;12.80;99.90;;;;;;5018273;28;20419;-73
2023/01/05 07:42:19;;;;;;;0.00;0.00;;;12.90;99.90;;;;;;5021396;28;20025;-73
2023/01/05 07:44:44;;;;;;;0.00;0.00;;;12.90;99.90;;;;;;5018827;28;20375;-73
2023/01/05 07:47:11;;;;;;;0.00;0.00;;;13.00;99.90;;;;;;5023071;28;20024;-73
2023/01/05 07:49:37;;;;;;;;;;;13.00;99.90;;;;;;5021004;28;20704;-74
2023/01/05 07:52:05;;;;;;;0.00;0.00;;;13.00;99.90;;;;;;5034969;28;19965;-73
2023/01/05 07:54:30;;;;;;;0.00;0.00;;;13.00;99.90;;;;;;5023327;28;20037;-73
2023/01/05 07:56:59;;;;;;;0.00;0.00;;;13.00;99.90;;;;;;5018190;28;20022;-72
2023/01/05 07:59:26;;;;;;;0.00;0.00;;;13.00;99.90;;;;;;5014729;28;20610;-74
2023/01/05 08:01:59;;;;;;;0.00;0.00;;;12.90;99.90;;;;;;5021208;28;20044;-73
2023/01/05 08:04:24;;;;;;;0.00;0.00;;;13.00;99.90;;;;;;5034513;28;20017;-73
2023/01/05 08:06:51;;;;;;;0.00;0.00;;;13.10;99.90;;;;;;5016269;28;20033;-75
2023/01/05 08:12:01;;;;;;;0.00;0.00;;;13.20;99.90;;;;;;5017560;28;19912;-73
2023/01/05 08:14:28;;;;;;;0.00;0.00;;;13.10;99.90;;;;;;5020226;28;20025;-73
2023/01/05 08:16:57;;;;;;;0.00;0.00;;;13.20;99.90;;;;;;5023166;28;20021;-73
2023/01/05 08:19:23;;;;;;;0.20;0.20;;;13.20;99.90;;;;;;5013135;28;20022;-72
2023/01/05 08:21:48;;;;;;;0.00;0.00;;;13.20;99.90;;;;;;5025708;28;20024;-73
2023/01/05 08:24:14;;;;;;;0.00;0.00;;;13.20;99.90;;;;;;5028139;28;20746;-72
2023/01/05 08:26:40;;;;;;;0.00;0.00;;;13.20;99.90;;;;;;5022394;28;20101;-73
2023/01/05 08:29:06;;;;;;;0.00;0.00;;;13.10;99.90;;;;;;5018334;28;20140;-72
2023/01/05 08:31:36;;;;;;;0.00;0.00;;;13.20;99.90;;;;;;5020629;28;20018;-73
2023/01/05 08:34:04;;;;;;;0.00;0.00;;;13.20;99.90;;;;;;5020342;28;20022;-73
2023/01/05 08:36:32;;;;;;;0.00;0.00;;;13.20;99.90;;;;;;5018155;28;20017;-72
2023/01/05 08:39:00;;;;;;;0.00;0.00;;;13.20;99.90;;;;;;5023932;28;20383;-72
2023/01/05 08:41:29;;;;;;;0.00;0.00;;;13.20;99.90;;;;;;5028608;28;20029;-72
2023/01/05 08:43:59;;;;;;;0.00;0.00;;;13.20;99.90;;;;;;5028934;28;20028;-72
2023/01/05 08:46:29;;;;;;;0.00;0.00;;;13.20;99.90;;;;;;5018408;28;20033;-73
2023/01/05 08:48:57;;;;;;;0.00;0.00;;;13.20;99.90;;;;;;5019026;28;20017;-72
2023/01/05 08:51:23;;;;;;;0.00;0.00;;;13.30;99.90;;;;;;5023888;28;20079;-71
2023/01/05 08:53:49;;;;;;;0.00;0.00;;;13.30;99.90;;;;;;5021770;28;20363;-71
2023/01/05 08:56:17;;;;;;;0.00;0.00;;;13.40;99.90;;;;;;5016770;28;20033;-72
2023/01/05 08:58:45;;;;;;;0.00;0.00;;;13.40;99.90;;;;;;5018344;28;20049;-72
2023/01/05 09:01:15;;;;;;;0.00;0.00;;;13.40;99.90;;;;;;5020112;28;20068;-72
2023/01/05 09:03:41;;;;;;;0.00;0.00;;;13.40;99.90;;;;;;5020961;28;20846;-73
2023/01/05 09:06:10;;;;;;;0.00;0.00;;;13.30;99.90;;;;;;5020636;28;20032;-72
2023/01/05 09:08:38;;;;;;;0.00;0.00;;;13.30;99.90;;;;;;5022269;28;21451;-72
2023/01/05 09:11:16;;;;;;;0.00;0.00;;;13.30;99.90;;;;;;5022091;28;20029;-72
2023/01/05 09:13:48;;;;;;;0.00;0.00;;;13.20;99.90;;;;;;5020133;28;20037;-72
2023/01/05 09:16:19;;;;;;;0.00;0.00;;;13.30;99.90;;;;;;5018924;28;20053;-73
2023/01/05 09:18:46;;;;;;;0.00;0.00;;;13.30;99.90;;;;;;5024416;28;20041;-72
2023/01/05 09:21:13;;;;;;;0.00;0.00;;;13.30;99.90;;;;;;5022506;28;20115;-72
2023/01/05 09:23:42;;;;;;;0.00;0.00;;;13.30;99.90;;;;;;5025743;28;20360;-72
2023/01/05 09:26:11;;;;;;;0.00;0.00;;;13.30;99.90;;;;;;5020973;28;20037;-72
2023/01/05 09:28:38;;;;;;;0.00;0.00;;;13.30;99.90;;;;;;5016793;28;20055;-73
2023/01/05 09:31:08;;;;;;;0.00;0.00;;;13.40;99.90;;;;;;5023034;28;20029;-72
2023/01/05 09:33:34;;;;;;;0.35;0.35;;;13.50;99.90;;;;;;5023042;28;20041;-73
2023/01/05 09:36:02;;;;;;;0.00;0.00;;;13.50;99.90;;;;;;5017155;28;20025;-72
2023/01/05 09:38:28;;;;;;;0.00;0.00;;;13.60;99.90;;;;;;5035230;28;20112;-73
2023/01/05 09:41:04;;;;;;;0.00;0.00;;;13.60;99.90;;;;;;5022869;28;20021;-73
2023/01/05 09:43:37;;;;;;;0.00;0.00;;;13.50;99.90;;;;;;5032743;28;20026;-73
2023/01/05 09:46:14;;;;;;;0.00;0.00;;;13.50;99.90;;;;;;5014834;28;20101;-73
2023/01/05 09:48:45;;;;;;;0.00;0.00;;;13.40;99.90;;;;;;5024199;28;20025;-72
2023/01/05 09:51:12;;;;;;;0.00;0.00;;;13.40;99.90;;;;;;5022595;28;20246;-73
2023/01/05 09:53:44;;;;;;;0.00;0.00;;;13.50;99.90;;;;;;5028518;28;20187;-73
2023/01/05 09:56:35;;;;;;;0.00;0.00;;;13.60;99.90;;;;;;5017455;28;20566;-73
2023/01/05 09:59:13;;;;;;;0.00;0.00;;;13.70;99.90;;;;;;5033419;28;20109;-73
2023/01/05 10:01:41;;;;;;;0.00;0.00;;;13.60;99.90;;;;;;5018590;28;20052;-73
2023/01/05 10:04:15;;;;;;;0.00;0.00;;;13.70;99.90;;;;;;5022804;28;20029;-73
2023/01/05 10:06:48;;;;;;;0.00;0.00;;;13.60;99.90;;;;;;5019384;28;20067;-73
2023/01/05 10:09:20;;;;;;;0.00;0.00;;;13.40;99.90;;;;;;5022764;28;20025;-72
2023/01/05 10:14:47;;;;;;;0.00;0.00;;;13.20;99.90;;;;;;5020191;28;20246;-74
2023/01/05 10:17:21;;;;;;;0.00;0.00;;;13.10;99.90;;;;;;5023733;28;20087;-74
2023/01/05 10:19:52;;;;;;;0.00;0.00;;;13.10;99.90;;;;;;5016448;28;20005;-74
2023/01/05 10:22:31;;;;;;;0.00;0.00;;;13.10;99.90;;;;;;5025770;28;20024;-73
2023/01/05 10:25:28;;;;;;;0.00;0.00;;;13.00;99.90;;;;;;5017362;28;20030;-74
2023/01/05 10:28:32;;;;;;;0.00;0.00;;;12.70;99.90;;;;;;5010628;28;20186;-73
2023/01/05 10:31:31;;;;;;;0.00;0.00;;;12.10;99.90;;;;;;5030967;28;20029;-73
2023/01/05 10:34:19;;;;;;;0.00;0.00;;;11.70;99.90;;;;;;4970434;28;20136;-73
2023/01/05 10:37:07;;;;;;;0.00;0.00;;;11.40;99.90;;;;;;5016218;28;20572;-73
2023/01/05 10:40:08;;;;;;;0.00;0.00;;;11.30;99.90;;;;;;5020351;28;20120;-73
2023/01/05 10:42:48;;;;;;;0.00;0.00;;;11.20;99.90;;;;;;5011427;28;20024;-73
2023/01/05 10:45:18;;;;;;;0.00;0.00;;;11.20;99.90;;;;;;5019841;28;20052;-73
2023/01/05 10:47:46;;;;;;;0.00;0.00;;;11.10;99.90;;;;;;5033842;28;20040;-73
2023/01/05 10:50:41;;;;;;;0.00;0.00;;;11.00;99.90;;;;;;5017311;28;20032;-72
2023/01/05 10:53:15;;;;;;;0.00;0.00;;;10.90;99.90;;;;;;5020547;28;20041;-73
2023/01/05 10:55:47;;;;;;;0.00;0.00;;;11.00;99.90;;;;;;5020316;28;20030;-72
2023/01/05 10:58:27;;;;;;;0.00;0.00;;;11.00;99.90;;;;;;5018434;28;20036;-72
2023/01/05 11:00:58;;;;;;;0.00;0.00;;;11.10;99.90;;;;;;5016364;28;20029;-73
2023/01/05 11:03:38;;;;;;;0.00;0.00;;;11.10;99.90;;;;;;5013278;28;20374;-73
2023/01/05 11:06:07;;;;;;;0.00;0.00;;;11.30;99.90;;;;;;5013323;28;20017;-73
2023/01/05 11:08:35;;;;;;;0.00;0.00;;;11.30;99.90;;;;;;5019331;28;20371;-74
2023/01/05 11:11:06;;;;;;;0.00;0.00;;;11.30;99.90;;;;;;5016487;28;20010;-74
2023/01/05 11:13:41;;;;;;;0.00;0.00;;;11.30;99.90;;;;;;5020126;28;20108;-73
2023/01/05 11:16:20;;;;;;;0.00;0.00;;;11.30;99.90;;;;;;5016000;28;20561;-71
2023/01/05 11:19:00;;;;;;;0.00;0.00;;;11.20;99.90;;;;;;5021016;28;20018;-73
2023/01/05 11:21:35;;;;;;;0.00;0.00;;;11.10;99.90;;;;;;5019665;28;20022;-73
2023/01/05 11:24:26;;;;;;;0.00;0.00;;;11.00;99.90;;;;;;5037381;28;20014;-74
2023/01/05 11:27:00;;;;;;;0.00;0.00;;;11.20;99.90;;;;;;5027783;28;20025;-74
2023/01/05 11:29:33;;;;;;;0.00;0.00;;;11.30;99.90;;;;;;5030488;28;20026;-72
2023/01/05 11:32:08;;;;;;;0.00;0.00;;;11.40;99.90;;;;;;5021169;28;20025;-73
2023/01/05 11:34:46;;;;;;;0.00;0.00;;;11.70;99.90;;;;;;5023799;28;20056;-73
2023/01/05 11:37:18;;;;;;;0.00;0.00;;;12.00;99.90;;;;;;5019962;28;20053;-73
2023/01/05 11:39:51;;;;;;;0.00;0.00;;;12.10;99.90;;;;;;5024888;28;20029;-73
2023/01/05 11:42:22;;;;;;;0.00;0.00;;;12.10;99.90;;;;;;5021421;28;20436;-74
2023/01/05 11:45:11;;;;;;;0.00;0.00;;;12.10;99.90;;;;;;5018235;28;20033;-74
2023/01/05 11:47:49;;;;;;;0.00;0.00;;;11.90;99.90;;;;;;5017321;28;20065;-74
2023/01/05 11:50:27;;;;;;;0.00;0.00;;;11.80;99.90;;;;;;5020325;28;20043;-73
2023/01/05 11:52:57;;;;;;;0.00;0.00;;;11.70;99.90;;;;;;5025455;28;20094;-74
2023/01/05 11:55:32;;;;;;;0.00;0.00;;;11.90;99.90;;;;;;5016402;28;20057;-74
2023/01/05 11:58:20;;;;;;;0.00;0.00;;;12.20;99.90;;;;;;5036875;28;20036;-74
2023/01/05 12:01:26;;;;;;;0.00;0.00;;;12.80;99.90;;;;;;5017684;28;20634;-74
2023/01/05 12:04:10;;;;;;;0.00;0.00;;;13.00;99.90;;;;;;5023942;28;20075;-74
2023/01/05 12:06:43;;;;;;;0.00;0.00;;;13.20;99.90;;;;;;5033655;28;20025;-73
2023/01/05 12:09:33;;;;;;;0.00;0.00;;;13.40;99.90;;;;;;5022136;28;20021;-74
2023/01/05 12:12:26;;;;;;;0.00;0.00;;;13.50;99.90;;;;;;5019364;28;20033;-74
2023/01/05 12:15:30;;;;;;;0.00;0.00;;;13.20;99.90;;;;;;5018454;28;20033;-74
2023/01/05 12:18:18;;;;;;;0.00;0.00;;;12.90;99.90;;;;;;5033010;28;20095;-74
2023/01/05 12:21:07;;;;;;;0.00;0.00;;;12.70;99.90;;;;;;5036964;28;20029;-74
2023/01/05 12:23:32;;;;;;;0.00;0.00;;;12.40;99.90;;;;;;5043965;28;20017;-73
2023/01/05 12:26:17;;;;;;;0.00;0.00;;;12.30;99.90;;;;;;5016980;28;20041;-74
2023/01/05 12:28:49;;;;;;;0.00;0.00;;;12.10;99.90;;;;;;5027742;28;20121;-73
2023/01/05 12:31:52;;;;;;;0.00;0.00;;;11.90;99.90;;;;;;5017074;28;20021;-73
2023/01/05 12:34:20;;;;;;;0.00;0.00;;;11.80;99.90;;;;;;5023043;28;21054;-74
2023/01/05 12:37:04;;;;;;;0.00;0.00;;;11.80;99.90;;;;;;5030227;28;20464;-74
2023/01/05 12:40:14;;;;;;;0.00;0.00;;;11.70;99.90;;;;;;5022469;28;20088;-74
2023/01/05 12:43:07;;;;;;;0.00;0.00;;;11.70;99.90;;;;;;4954440;28;20117;-74
2023/01/05 12:45:53;;;;;;;0.00;0.00;;;11.70;99.90;;;;;;4974993;28;20034;-74
2023/01/05 12:48:26;;;;;;;0.00;0.00;;;11.70;99.90;;;;;;5010465;28;20291;-74
2023/01/05 12:51:04;;;;;;;0.00;0.00;;;11.70;99.90;;;;;;5027013;28;20092;-74
2023/01/05 12:53:35;;;;;;;0.00;0.00;;;11.80;99.90;;;;;;5019925;28;20542;-74
2023/01/05 12:56:13;;;;;;;0.00;0.00;;;11.80;99.90;;;;;;5014964;28;20352;-74
2023/01/05 12:59:06;;;;;;;0.00;0.00;;;11.70;99.90;;;;;;5015884;28;20021;-74
2023/01/05 13:01:51;;;;;;;0.00;0.00;;;11.70;99.90;;;;;;5020489;28;20493;-73
2023/01/05 13:04:27;;;;;;;0.00;0.00;;;11.80;99.90;;;;;;5020069;28;20021;-74
2023/01/05 13:07:12;;;;;;;0.00;0.00;;;11.90;99.90;;;;;;5033682;28;20100;-73
2023/01/05 13:09:38;;;;;;;0.00;0.00;;;12.00;99.90;;;;;;5022216;28;20029;-74
2023/01/05 13:12:08;;;;;;;0.00;0.00;;;11.90;99.90;;;;;;5022439;28;20163;-74
2023/01/05 13:14:43;;;;;;;0.00;0.00;;;11.90;99.90;;;;;;5017127;28;20057;-74
2023/01/05 13:17:24;;;;;;;0.00;0.00;;;11.90;99.90;;;;;;5017858;28;20018;-75
2023/01/05 13:20:19;;;;;;;0.00;0.00;;;11.90;99.90;;;;;;5018927;28;20018;-74
2023/01/05 13:22:50;;;;;;;0.00;0.00;;;11.90;99.90;;;;;;5015166;28;20175;-74
2023/01/05 13:25:21;;;;;;;0.00;0.00;;;11.80;99.90;;;;;;5024290;28;20167;-75
2023/01/05 13:27:50;;;;;;;0.00;0.00;;;11.80;99.90;;;;;;5013381;28;20009;-74
2023/01/05 13:30:31;;;;;;;0.00;0.00;;;11.80;99.90;;;;;;5020727;28;20017;-75
2023/01/05 13:33:36;;;;;;;0.00;0.00;;;11.80;99.90;;;;;;5018750;28;20155;-74
2023/01/05 13:36:02;;;;;;;0.00;0.00;;;11.80;99.90;;;;;;5027537;28;20029;-77
2023/01/05 13:38:53;;;;;;;0.00;0.00;;;11.80;99.90;;;;;;5023498;28;20021;-74
2023/01/05 13:41:59;;;;;;;0.00;0.00;;;11.70;99.90;;;;;;5014768;28;20026;-79
2023/01/05 13:44:37;;;;;;;0.00;0.00;;;11.80;99.90;;;;;;5045074;28;20020;-79
2023/01/05 13:47:19;;;;;;;0.00;0.00;;;12.00;99.90;;;;;;5019027;28;20045;-75
2023/01/05 13:50:25;;;;;;;0.00;0.00;;;12.10;99.90;;;;;;5020713;28;20030;-74
2023/01/05 13:53:00;;;;;;;0.00;0.00;;;11.90;99.90;;;;;;5025879;28;20020;-74